ASA89 PANC-PAYA
Flight info
| Callsign | ASA89 |
|---|---|
| Flight time | 0h 57m |
| Altitude | 37000 |
| Route | NOEND YAK |
| Aircraft | B737/M-SDE2E3FGHIRWXY/LB1 |
Departure
| Time | 2026-05-07 13:12 |
|---|---|
| Airport | Ted Stevens Anchorage International Airport (PANC) |
Arrival
| Time | 2026-05-07 14:09 |
|---|---|
| Airport | Yakutat Airport (PAYA) |
| Time | Latitude | Longitude | Altitude | Speed | Heading |
|---|---|---|---|---|---|
| 2026-05-07 12:57 | 61.17208 | -149.97772 | 117 ft | 0 kts | 43° |
| 2026-05-07 13:05 | 61.17197 | -149.97791 | 127 ft | 4 kts | 38° |
| 2026-05-07 13:05 | 61.17175 | -149.97821 | 116 ft | 4 kts | 23° |
| 2026-05-07 13:05 | 61.17149 | -149.97837 | 126 ft | 4 kts | 9° |
| 2026-05-07 13:05 | 61.17124 | -149.97847 | 119 ft | 4 kts | 36° |
| 2026-05-07 13:06 | 61.17119 | -149.97860 | 113 ft | 1 kts | 90° |
| 2026-05-07 13:06 | 61.17119 | -149.97865 | 113 ft | 0 kts | 90° |
| 2026-05-07 13:07 | 61.17119 | -149.97863 | 113 ft | 2 kts | 90° |
| 2026-05-07 13:08 | 61.17119 | -149.97775 | 118 ft | 7 kts | 90° |
| 2026-05-07 13:08 | 61.17119 | -149.97671 | 118 ft | 7 kts | 90° |
| 2026-05-07 13:08 | 61.17119 | -149.97570 | 119 ft | 7 kts | 90° |
| 2026-05-07 13:08 | 61.17120 | -149.97471 | 116 ft | 7 kts | 88° |
| 2026-05-07 13:09 | 61.17121 | -149.97374 | 115 ft | 7 kts | 86° |
| 2026-05-07 13:09 | 61.17127 | -149.97278 | 119 ft | 7 kts | 86° |
| 2026-05-07 13:09 | 61.17128 | -149.97152 | 119 ft | 11 kts | 89° |
| 2026-05-07 13:09 | 61.17128 | -149.96973 | 119 ft | 12 kts | 89° |
| 2026-05-07 13:10 | 61.17095 | -149.96824 | 120 ft | 12 kts | 158° |
| 2026-05-07 13:10 | 61.17012 | -149.96813 | 119 ft | 12 kts | 179° |
| 2026-05-07 13:10 | 61.16929 | -149.96836 | 118 ft | 12 kts | 212° |
| 2026-05-07 13:10 | 61.16889 | -149.96987 | 116 ft | 12 kts | 251° |
| 2026-05-07 13:11 | 61.16861 | -149.97147 | 118 ft | 12 kts | 249° |
| 2026-05-07 13:11 | 61.16825 | -149.97295 | 121 ft | 11 kts | 231° |
| 2026-05-07 13:11 | 61.16788 | -149.97434 | 118 ft | 11 kts | 265° |
| 2026-05-07 13:11 | 61.16788 | -149.97924 | 119 ft | 77 kts | 270° |
| 2026-05-07 13:12 | 61.16787 | -149.99638 | 123 ft | 158 kts | 270° |
| 2026-05-07 13:12 | 61.16803 | -150.02118 | 820 ft | 181 kts | 268° |
| 2026-05-07 13:12 | 61.16814 | -150.04832 | 1825 ft | 195 kts | 266° |
| 2026-05-07 13:12 | 61.16807 | -150.07661 | 2803 ft | 201 kts | 265° |
| 2026-05-07 13:13 | 61.16446 | -150.10438 | 3634 ft | 205 kts | 234° |
| 2026-05-07 13:13 | 61.15316 | -150.12482 | 4068 ft | 235 kts | 202° |
| 2026-05-07 13:13 | 61.13681 | -150.12896 | 5047 ft | 242 kts | 170° |
| 2026-05-07 13:13 | 61.12151 | -150.11462 | 6237 ft | 247 kts | 142° |
| 2026-05-07 13:14 | 61.11010 | -150.08744 | 7312 ft | 255 kts | 129° |
| 2026-05-07 13:14 | 61.09968 | -150.05708 | 8305 ft | 262 kts | 128° |
| 2026-05-07 13:14 | 61.08928 | -150.02621 | 9331 ft | 267 kts | 127° |
| 2026-05-07 13:14 | 61.07852 | -149.99425 | 10321 ft | 274 kts | 127° |
| 2026-05-07 13:15 | 61.06711 | -149.96046 | 10706 ft | 302 kts | 127° |
| 2026-05-07 13:15 | 61.05470 | -149.92386 | 11284 ft | 318 kts | 127° |
| 2026-05-07 13:15 | 61.04182 | -149.88585 | 12118 ft | 326 kts | 128° |
| 2026-05-07 13:15 | 61.02965 | -149.84586 | 12899 ft | 336 kts | 116° |
| 2026-05-07 13:16 | 61.02505 | -149.79797 | 13667 ft | 350 kts | 90° |
| 2026-05-07 13:16 | 61.02890 | -149.74774 | 14427 ft | 357 kts | 80° |
| 2026-05-07 13:16 | 61.03379 | -149.69717 | 15176 ft | 362 kts | 80° |
| 2026-05-07 13:16 | 61.03863 | -149.64570 | 15905 ft | 368 kts | 81° |
| 2026-05-07 13:17 | 61.04337 | -149.59338 | 16645 ft | 374 kts | 81° |
| 2026-05-07 13:17 | 61.04796 | -149.54083 | 17365 ft | 380 kts | 81° |
| 2026-05-07 13:17 | 61.05256 | -149.48667 | 18059 ft | 385 kts | 81° |
| 2026-05-07 13:17 | 61.05714 | -149.43178 | 18744 ft | 390 kts | 82° |
| 2026-05-07 13:18 | 61.06173 | -149.37621 | 19357 ft | 395 kts | 82° |
| 2026-05-07 13:18 | 61.06633 | -149.32002 | 20003 ft | 399 kts | 82° |
| 2026-05-07 13:18 | 61.07095 | -149.26318 | 20660 ft | 403 kts | 82° |
| 2026-05-07 13:18 | 61.07560 | -149.20566 | 21277 ft | 408 kts | 82° |
| 2026-05-07 13:19 | 61.08028 | -149.14738 | 21877 ft | 413 kts | 82° |
| 2026-05-07 13:19 | 61.08498 | -149.08851 | 22468 ft | 418 kts | 82° |
| 2026-05-07 13:19 | 61.08970 | -149.02902 | 23077 ft | 422 kts | 82° |
| 2026-05-07 13:19 | 61.09445 | -148.96885 | 23665 ft | 426 kts | 83° |
| 2026-05-07 13:20 | 61.09915 | -148.90891 | 24127 ft | 431 kts | 82° |
| 2026-05-07 13:20 | 61.10395 | -148.84742 | 24630 ft | 434 kts | 82° |
| 2026-05-07 13:20 | 61.10874 | -148.78567 | 25104 ft | 437 kts | 82° |
| 2026-05-07 13:20 | 61.11355 | -148.72336 | 25577 ft | 440 kts | 83° |
| 2026-05-07 13:21 | 61.11836 | -148.66066 | 25988 ft | 443 kts | 83° |
| 2026-05-07 13:21 | 61.12320 | -148.59721 | 26437 ft | 447 kts | 83° |
| 2026-05-07 13:21 | 61.12785 | -148.53312 | 26889 ft | 450 kts | 86° |
| 2026-05-07 13:21 | 61.12870 | -148.46851 | 27315 ft | 450 kts | 96° |
| 2026-05-07 13:22 | 61.12469 | -148.40437 | 27751 ft | 449 kts | 106° |
| 2026-05-07 13:22 | 61.11648 | -148.34209 | 28146 ft | 449 kts | 110° |
| 2026-05-07 13:22 | 61.10748 | -148.28098 | 28524 ft | 452 kts | 111° |
| 2026-05-07 13:22 | 61.09805 | -148.21887 | 28940 ft | 455 kts | 111° |
| 2026-05-07 13:23 | 61.08851 | -148.15622 | 29316 ft | 458 kts | 111° |
| 2026-05-07 13:23 | 61.07900 | -148.09325 | 29718 ft | 461 kts | 111° |
| 2026-05-07 13:23 | 61.06949 | -148.02970 | 30065 ft | 464 kts | 111° |
| 2026-05-07 13:23 | 61.06001 | -147.96589 | 30368 ft | 467 kts | 111° |
| 2026-05-07 13:24 | 61.05046 | -147.90147 | 30617 ft | 470 kts | 111° |
| 2026-05-07 13:24 | 61.04085 | -147.83673 | 30889 ft | 473 kts | 111° |
| 2026-05-07 13:24 | 61.03120 | -147.77184 | 31164 ft | 475 kts | 111° |
| 2026-05-07 13:24 | 61.02146 | -147.70652 | 31464 ft | 476 kts | 111° |
| 2026-05-07 13:25 | 61.01166 | -147.64114 | 31756 ft | 478 kts | 111° |
| 2026-05-07 13:25 | 61.00181 | -147.57562 | 32135 ft | 477 kts | 111° |
| 2026-05-07 13:25 | 60.99198 | -147.51052 | 32549 ft | 476 kts | 111° |
| 2026-05-07 13:25 | 60.98213 | -147.44553 | 32967 ft | 475 kts | 111° |
| 2026-05-07 13:26 | 60.97234 | -147.38123 | 33331 ft | 476 kts | 110° |
| 2026-05-07 13:26 | 60.96243 | -147.31636 | 33719 ft | 476 kts | 110° |
| 2026-05-07 13:26 | 60.95243 | -147.25136 | 34077 ft | 476 kts | 111° |
| 2026-05-07 13:26 | 60.94240 | -147.18644 | 34367 ft | 476 kts | 111° |
| 2026-05-07 13:27 | 60.93236 | -147.12145 | 34683 ft | 476 kts | 111° |
| 2026-05-07 13:27 | 60.92232 | -147.05664 | 35014 ft | 475 kts | 111° |
| 2026-05-07 13:27 | 60.91228 | -146.99203 | 35347 ft | 475 kts | 111° |
| 2026-05-07 13:27 | 60.90218 | -146.92744 | 35636 ft | 475 kts | 111° |
| 2026-05-07 13:28 | 60.89204 | -146.86278 | 35927 ft | 475 kts | 111° |
| 2026-05-07 13:28 | 60.88188 | -146.79826 | 36223 ft | 475 kts | 111° |
| 2026-05-07 13:28 | 60.87181 | -146.73459 | 36536 ft | 474 kts | 111° |
| 2026-05-07 13:28 | 60.86163 | -146.67039 | 36838 ft | 474 kts | 111° |
| 2026-05-07 13:29 | 60.85139 | -146.60609 | 37090 ft | 474 kts | 111° |
| 2026-05-07 13:29 | 60.84110 | -146.54173 | 37184 ft | 476 kts | 111° |
| 2026-05-07 13:29 | 60.82038 | -146.41281 | 37170 ft | 475 kts | 111° |
| 2026-05-07 13:30 | 60.79968 | -146.28486 | 37183 ft | 472 kts | 111° |
| 2026-05-07 13:30 | 60.77895 | -146.15766 | 37188 ft | 470 kts | 111° |
| 2026-05-07 13:31 | 60.75813 | -146.03084 | 37188 ft | 469 kts | 111° |
| 2026-05-07 13:31 | 60.73722 | -145.90435 | 37186 ft | 469 kts | 112° |
| 2026-05-07 13:32 | 60.71621 | -145.77822 | 37200 ft | 469 kts | 112° |
| 2026-05-07 13:32 | 60.69520 | -145.65287 | 37207 ft | 470 kts | 112° |
| 2026-05-07 13:33 | 60.67389 | -145.52663 | 37204 ft | 470 kts | 112° |
| 2026-05-07 13:33 | 60.65243 | -145.40035 | 37205 ft | 471 kts | 112° |
| 2026-05-07 13:34 | 60.61995 | -145.21084 | 37197 ft | 472 kts | 112° |
| 2026-05-07 13:35 | 60.59812 | -145.08457 | 37198 ft | 473 kts | 112° |
| 2026-05-07 13:35 | 60.57985 | -144.97958 | 37196 ft | 474 kts | 113° |
| 2026-05-07 13:36 | 60.55772 | -144.85315 | 37209 ft | 475 kts | 113° |
| 2026-05-07 13:36 | 60.53179 | -144.70610 | 37202 ft | 476 kts | 113° |
| 2026-05-07 13:37 | 60.51296 | -144.60001 | 37183 ft | 477 kts | 113° |
| 2026-05-07 13:37 | 60.49050 | -144.47428 | 37197 ft | 477 kts | 113° |
| 2026-05-07 13:38 | 60.46774 | -144.34767 | 37190 ft | 478 kts | 113° |
| 2026-05-07 13:38 | 60.44483 | -144.22108 | 37194 ft | 478 kts | 114° |
| 2026-05-07 13:39 | 60.42184 | -144.09489 | 37190 ft | 478 kts | 114° |
| 2026-05-07 13:39 | 60.39872 | -143.96884 | 37184 ft | 477 kts | 114° |
| 2026-05-07 13:40 | 60.37552 | -143.84318 | 37184 ft | 476 kts | 114° |
| 2026-05-07 13:40 | 60.35240 | -143.71875 | 37201 ft | 476 kts | 114° |
| 2026-05-07 13:41 | 60.32901 | -143.59368 | 37185 ft | 475 kts | 114° |
| 2026-05-07 13:41 | 60.30553 | -143.46893 | 37199 ft | 475 kts | 114° |
| 2026-05-07 13:42 | 60.28194 | -143.34444 | 37197 ft | 474 kts | 115° |
| 2026-05-07 13:42 | 60.25845 | -143.22123 | 37199 ft | 474 kts | 115° |
| 2026-05-07 13:43 | 60.23468 | -143.09730 | 37201 ft | 474 kts | 115° |
| 2026-05-07 13:43 | 60.21082 | -142.97370 | 37202 ft | 473 kts | 115° |
| 2026-05-07 13:44 | 60.18692 | -142.85067 | 37204 ft | 473 kts | 115° |
| 2026-05-07 13:44 | 60.17489 | -142.78904 | 37053 ft | 475 kts | 115° |
| 2026-05-07 13:44 | 60.16272 | -142.72696 | 36495 ft | 478 kts | 115° |
| 2026-05-07 13:44 | 60.15057 | -142.66507 | 35906 ft | 477 kts | 115° |
| 2026-05-07 13:45 | 60.13834 | -142.60297 | 35227 ft | 479 kts | 116° |
| 2026-05-07 13:45 | 60.12612 | -142.54110 | 34743 ft | 476 kts | 116° |
| 2026-05-07 13:45 | 60.11393 | -142.47957 | 34215 ft | 474 kts | 116° |
| 2026-05-07 13:45 | 60.10175 | -142.41826 | 33645 ft | 471 kts | 116° |
| 2026-05-07 13:46 | 60.08964 | -142.35749 | 33106 ft | 467 kts | 116° |
| 2026-05-07 13:46 | 60.07778 | -142.29811 | 32626 ft | 463 kts | 117° |
| 2026-05-07 13:46 | 60.06579 | -142.23829 | 32148 ft | 459 kts | 117° |
| 2026-05-07 13:46 | 60.05388 | -142.17913 | 31660 ft | 456 kts | 117° |
| 2026-05-07 13:47 | 60.04203 | -142.12040 | 31180 ft | 453 kts | 118° |
| 2026-05-07 13:47 | 60.03020 | -142.06200 | 30728 ft | 451 kts | 118° |
| 2026-05-07 13:47 | 60.01842 | -142.00398 | 30278 ft | 449 kts | 118° |
| 2026-05-07 13:47 | 60.00685 | -141.94717 | 29748 ft | 446 kts | 118° |
| 2026-05-07 13:48 | 59.99517 | -141.88995 | 29218 ft | 442 kts | 118° |
| 2026-05-07 13:48 | 59.98361 | -141.83347 | 28728 ft | 438 kts | 118° |
| 2026-05-07 13:48 | 59.97211 | -141.77743 | 28243 ft | 435 kts | 118° |
| 2026-05-07 13:48 | 59.96065 | -141.72176 | 27749 ft | 431 kts | 118° |
| 2026-05-07 13:49 | 59.94926 | -141.66658 | 27271 ft | 429 kts | 118° |
| 2026-05-07 13:49 | 59.93782 | -141.61142 | 26645 ft | 434 kts | 118° |
| 2026-05-07 13:49 | 59.92611 | -141.55527 | 25963 ft | 440 kts | 118° |
| 2026-05-07 13:49 | 59.91429 | -141.49862 | 25317 ft | 443 kts | 118° |
| 2026-05-07 13:50 | 59.90244 | -141.44190 | 24715 ft | 444 kts | 117° |
| 2026-05-07 13:50 | 59.89055 | -141.38502 | 24096 ft | 443 kts | 117° |
| 2026-05-07 13:50 | 59.87873 | -141.32859 | 23420 ft | 440 kts | 117° |
| 2026-05-07 13:50 | 59.86695 | -141.27251 | 22702 ft | 438 kts | 117° |
| 2026-05-07 13:51 | 59.85521 | -141.21679 | 21998 ft | 435 kts | 117° |
| 2026-05-07 13:51 | 59.84353 | -141.16150 | 21314 ft | 432 kts | 117° |
| 2026-05-07 13:51 | 59.83191 | -141.10672 | 20647 ft | 429 kts | 117° |
| 2026-05-07 13:51 | 59.82034 | -141.05231 | 19998 ft | 425 kts | 116° |
| 2026-05-07 13:52 | 59.80886 | -140.99847 | 19358 ft | 422 kts | 116° |
| 2026-05-07 13:52 | 59.79744 | -140.94507 | 18705 ft | 418 kts | 116° |
| 2026-05-07 13:52 | 59.78612 | -140.89225 | 18015 ft | 415 kts | 116° |
| 2026-05-07 13:52 | 59.77499 | -140.84049 | 17322 ft | 411 kts | 116° |
| 2026-05-07 13:53 | 59.76380 | -140.78855 | 16632 ft | 407 kts | 116° |
| 2026-05-07 13:53 | 59.75276 | -140.73739 | 16054 ft | 401 kts | 116° |
| 2026-05-07 13:53 | 59.73993 | -140.68935 | 15562 ft | 388 kts | 131° |
| 2026-05-07 13:53 | 59.72159 | -140.65203 | 15291 ft | 370 kts | 142° |
| 2026-05-07 13:54 | 59.70220 | -140.61961 | 14984 ft | 358 kts | 144° |
| 2026-05-07 13:54 | 59.68311 | -140.58891 | 14678 ft | 349 kts | 144° |
| 2026-05-07 13:54 | 59.66442 | -140.55910 | 14378 ft | 340 kts | 144° |
| 2026-05-07 13:54 | 59.64618 | -140.53016 | 14080 ft | 332 kts | 145° |
| 2026-05-07 13:55 | 59.62829 | -140.50192 | 13745 ft | 325 kts | 144° |
| 2026-05-07 13:55 | 59.61076 | -140.47447 | 13414 ft | 319 kts | 144° |
| 2026-05-07 13:55 | 59.59347 | -140.44763 | 13075 ft | 313 kts | 145° |
| 2026-05-07 13:55 | 59.57666 | -140.42171 | 12754 ft | 308 kts | 144° |
| 2026-05-07 13:56 | 59.55986 | -140.39608 | 12434 ft | 303 kts | 144° |
| 2026-05-07 13:56 | 59.54260 | -140.37296 | 12110 ft | 296 kts | 151° |
| 2026-05-07 13:56 | 59.52481 | -140.35291 | 11798 ft | 292 kts | 153° |
| 2026-05-07 13:56 | 59.50707 | -140.33374 | 11476 ft | 288 kts | 153° |
| 2026-05-07 13:57 | 59.48971 | -140.31519 | 11115 ft | 280 kts | 153° |
| 2026-05-07 13:57 | 59.47255 | -140.29725 | 10534 ft | 279 kts | 156° |
| 2026-05-07 13:57 | 59.45482 | -140.28332 | 10000 ft | 276 kts | 160° |
| 2026-05-07 13:57 | 59.43680 | -140.27085 | 9394 ft | 274 kts | 161° |
| 2026-05-07 13:58 | 59.41884 | -140.25873 | 8823 ft | 271 kts | 161° |
| 2026-05-07 13:58 | 59.40106 | -140.24684 | 8265 ft | 268 kts | 161° |
| 2026-05-07 13:58 | 59.38340 | -140.23513 | 7706 ft | 266 kts | 161° |
| 2026-05-07 13:58 | 59.36589 | -140.22360 | 7198 ft | 267 kts | 161° |
| 2026-05-07 13:59 | 59.34782 | -140.21614 | 6859 ft | 266 kts | 181° |
| 2026-05-07 13:59 | 59.33018 | -140.22532 | 6543 ft | 265 kts | 209° |
| 2026-05-07 13:59 | 59.31607 | -140.24840 | 6207 ft | 264 kts | 224° |
| 2026-05-07 13:59 | 59.30362 | -140.27422 | 5863 ft | 256 kts | 226° |
| 2026-05-07 14:00 | 59.29166 | -140.29860 | 5526 ft | 246 kts | 217° |
| 2026-05-07 14:00 | 59.27628 | -140.31036 | 5200 ft | 238 kts | 179° |
| 2026-05-07 14:00 | 59.26105 | -140.30100 | 4896 ft | 230 kts | 142° |
| 2026-05-07 14:00 | 59.25261 | -140.27548 | 4562 ft | 225 kts | 103° |
| 2026-05-07 14:01 | 59.25189 | -140.24549 | 4349 ft | 218 kts | 88° |
| 2026-05-07 14:01 | 59.25435 | -140.21649 | 4167 ft | 216 kts | 76° |
| 2026-05-07 14:01 | 59.25942 | -140.18890 | 4017 ft | 217 kts | 68° |
| 2026-05-07 14:01 | 59.26643 | -140.16265 | 3853 ft | 218 kts | 61° |
| 2026-05-07 14:02 | 59.27460 | -140.13762 | 3694 ft | 218 kts | 57° |
| 2026-05-07 14:02 | 59.28353 | -140.11351 | 3539 ft | 219 kts | 55° |
| 2026-05-07 14:02 | 59.29286 | -140.09004 | 3375 ft | 219 kts | 52° |
| 2026-05-07 14:02 | 59.30294 | -140.06753 | 3219 ft | 220 kts | 49° |
| 2026-05-07 14:03 | 59.31346 | -140.04579 | 3063 ft | 219 kts | 47° |
| 2026-05-07 14:03 | 59.32390 | -140.02489 | 2886 ft | 209 kts | 47° |
| 2026-05-07 14:03 | 59.33373 | -140.00542 | 2683 ft | 193 kts | 46° |
| 2026-05-07 14:03 | 59.34287 | -139.98737 | 2536 ft | 180 kts | 47° |
| 2026-05-07 14:04 | 59.35132 | -139.97068 | 2487 ft | 171 kts | 46° |
| 2026-05-07 14:04 | 59.35950 | -139.95453 | 2499 ft | 165 kts | 47° |
| 2026-05-07 14:04 | 59.36747 | -139.93880 | 2555 ft | 156 kts | 47° |
| 2026-05-07 14:04 | 59.37480 | -139.92436 | 2478 ft | 143 kts | 47° |
| 2026-05-07 14:05 | 59.38164 | -139.91087 | 2465 ft | 136 kts | 48° |
| 2026-05-07 14:05 | 59.38837 | -139.89757 | 2480 ft | 138 kts | 49° |
| 2026-05-07 14:05 | 59.39518 | -139.88411 | 2304 ft | 140 kts | 48° |
| 2026-05-07 14:05 | 59.40199 | -139.87070 | 2178 ft | 137 kts | 49° |
| 2026-05-07 14:06 | 59.40868 | -139.85752 | 2080 ft | 136 kts | 48° |
| 2026-05-07 14:06 | 59.41536 | -139.84433 | 1986 ft | 137 kts | 48° |
| 2026-05-07 14:06 | 59.42208 | -139.83110 | 1894 ft | 137 kts | 49° |
| 2026-05-07 14:06 | 59.42884 | -139.81777 | 1790 ft | 139 kts | 48° |
| 2026-05-07 14:07 | 59.43564 | -139.80439 | 1704 ft | 136 kts | 48° |
| 2026-05-07 14:07 | 59.44224 | -139.79139 | 1617 ft | 137 kts | 48° |
| 2026-05-07 14:07 | 59.44901 | -139.77807 | 1437 ft | 136 kts | 48° |
| 2026-05-07 14:07 | 59.45453 | -139.76720 | 1292 ft | 134 kts | 48° |
| 2026-05-07 14:08 | 59.46114 | -139.75419 | 1121 ft | 134 kts | 48° |
| 2026-05-07 14:08 | 59.46775 | -139.74119 | 939 ft | 134 kts | 47° |
| 2026-05-07 14:08 | 59.47435 | -139.72820 | 760 ft | 136 kts | 48° |
| 2026-05-07 14:08 | 59.48109 | -139.71491 | 611 ft | 141 kts | 49° |
| 2026-05-07 14:09 | 59.48804 | -139.70132 | 408 ft | 141 kts | 48° |
| 2026-05-07 14:09 | 59.49478 | -139.68792 | 171 ft | 135 kts | 47° |
| 2026-05-07 14:09 | 59.50116 | -139.67542 | 49 ft | 120 kts | 45° |
| 2026-05-07 14:09 | 59.50495 | -139.66807 | 46 ft | 25 kts | 45° |
| 2026-05-07 14:10 | 59.50615 | -139.66900 | 47 ft | 21 kts | 309° |
| 2026-05-07 14:10 | 59.50663 | -139.67000 | 48 ft | 0 kts | 320° |